Time;durP1;ratioP1;P1;durP2;ratioP2;P2;SDS_P1;SDS_P2;PMS_P1;PMS_P2;Temp;Humidity;BMP_temperature;BMP_pressure;BME280_temperature;BME280_humidity;BME280_pressure;Samples;Min_cycle;Max_cycle;Signal;HPM_P1;HPM_P2
2021/01/10 00:00:10;;;;;;;48.98;26.37;;;;;;;2.13;86.10;101755.06;1752844;81;21143;-83
2021/01/10 00:02:39;;;;;;;46.00;25.17;;;;;;;2.17;86.08;101755.30;1747325;81;21184;-83
2021/01/10 00:05:10;;;;;;;45.28;25.57;;;;;;;2.16;86.01;101755.70;1752958;81;21180;-83
2021/01/10 00:07:37;;;;;;;42.25;23.83;;;;;;;2.12;85.95;101751.98;1753038;81;22910;-85
2021/01/10 00:10:15;;;;;;;45.52;25.45;;;;;;;2.13;86.09;101752.47;1752865;81;21681;-84
2021/01/10 00:12:41;;;;;;;41.25;23.67;;;;;;;2.15;86.04;101756.48;1752599;81;21164;-85
2021/01/10 00:15:16;;;;;;;44.30;25.02;;;;;;;2.14;85.98;101755.59;1752354;81;21125;-83
2021/01/10 00:17:48;;;;;;;42.98;24.45;;;;;;;2.12;86.02;101759.77;1752908;81;21136;-84
2021/01/10 00:20:20;;;;;;;44.60;24.60;;;;;;;2.13;86.06;101761.96;1752919;81;21191;-84
2021/01/10 00:22:57;;;;;;;43.38;24.70;;;;;;;2.14;86.03;101756.89;1752727;81;21680;-84
2021/01/10 00:25:36;;;;;;;46.20;24.72;;;;;;;2.16;86.03;101767.77;1752880;81;21145;-85
2021/01/10 00:28:08;;;;;;;39.58;23.85;;;;;;;2.14;85.97;101775.47;1752894;81;21128;-83
2021/01/10 00:30:37;;;;;;;45.10;24.90;;;;;;;2.15;86.06;101770.77;1752999;81;21136;-83
2021/01/10 00:33:15;;;;;;;46.35;24.82;;;;;;;2.18;86.18;101769.72;1752847;81;21902;-85
2021/01/10 00:36:01;;;;;;;46.95;26.57;;;;;;;2.22;86.11;101773.05;1692149;83;21149;-83
2021/01/10 00:38:28;;;;;;;47.78;27.17;;;;;;;2.23;86.11;101769.64;1722423;83;21192;-83
2021/01/10 00:40:57;;;;;;;47.38;26.37;;;;;;;2.24;86.03;101774.46;1722093;83;21211;-85
2021/01/10 00:43:27;;;;;;;49.30;27.90;;;;;;;2.24;86.01;101768.86;1722415;83;21165;-83
2021/01/10 00:45:57;;;;;;;49.13;26.37;;;;;;;2.22;85.95;101769.55;1722512;83;21907;-84
2021/01/10 00:48:24;;;;;;;51.30;28.10;;;;;;;2.23;86.01;101772.23;1722592;83;21172;-84
2021/01/10 00:50:53;;;;;;;48.15;27.05;;;;;;;2.25;86.01;101781.45;1722525;83;21227;-84
2021/01/10 00:53:20;;;;;;;45.35;26.02;;;;;;;2.22;85.97;101774.75;1722366;83;21598;-83
2021/01/10 00:55:49;;;;;;;42.60;24.87;;;;;;;2.24;86.11;101777.95;1722663;83;21180;-84
2021/01/10 00:58:16;;;;;;;45.73;25.15;;;;;;;2.24;86.02;101782.25;1722522;83;22060;-83
2021/01/10 01:00:43;;;;;;;47.30;25.08;;;;;;;2.23;85.98;101780.44;1722524;83;21128;-83
2021/01/10 01:03:10;;;;;;;49.93;25.80;;;;;;;2.23;85.98;101783.92;1722451;83;21161;-84
2021/01/10 01:05:37;;;;;;;43.17;24.50;;;;;;;2.22;85.99;101789.92;1722435;83;21145;-85
2021/01/10 01:08:06;;;;;;;43.55;24.40;;;;;;;2.22;86.00;101782.54;1722427;83;21220;-82
2021/01/10 01:10:33;;;;;;;44.23;24.18;;;;;;;2.23;86.00;101783.03;1722485;83;22630;-85
2021/01/10 01:13:01;;;;;;;38.73;24.32;;;;;;;2.24;86.01;101774.46;1722415;83;21155;-84
2021/01/10 01:15:29;;;;;;;40.95;23.55;;;;;;;2.25;86.04;101778.48;1722244;83;21207;-84
2021/01/10 01:17:57;;;;;;;46.60;24.65;;;;;;;2.28;86.04;101779.09;1721913;83;21187;-85
2021/01/10 01:20:24;;;;;;;43.92;23.85;;;;;;;2.28;86.02;101786.89;1722355;83;21159;-85
2021/01/10 01:22:53;;;;;;;47.45;26.77;;;;;;;2.31;86.06;101788.42;1722485;83;21188;-84
2021/01/10 01:25:22;;;;;;;54.40;30.55;;;;;;;2.30;85.97;101787.50;1729816;82;21167;-83
2021/01/10 01:27:49;;;;;;;43.28;24.15;;;;;;;2.29;85.92;101780.52;1730597;82;21244;-83
2021/01/10 01:30:20;;;;;;;37.78;23.05;;;;;;;2.28;85.84;101773.90;1730622;82;21248;-83
2021/01/10 01:32:47;;;;;;;43.90;24.82;;;;;;;2.29;85.96;101775.69;1730705;82;21132;-83
2021/01/10 01:35:16;;;;;;;37.58;22.95;;;;;;;2.30;85.95;101779.70;1730688;82;22874;-82
2021/01/10 01:37:44;;;;;;;44.67;24.07;;;;;;;2.26;85.81;101777.67;1730618;82;21183;-84
2021/01/10 01:40:16;;;;;;;43.83;25.30;;;;;;;2.26;85.88;101788.06;1730836;82;21168;-83
2021/01/10 01:42:46;;;;;;;43.28;24.10;;;;;;;2.26;85.92;101785.47;1730668;82;21570;-83
2021/01/10 01:45:13;;;;;;;42.70;23.90;;;;;;;2.29;85.96;101792.20;1730669;82;21176;-83
2021/01/10 01:47:40;;;;;;;41.37;23.30;;;;;;;2.29;85.97;101794.80;1730044;82;21887;-84
2021/01/10 01:50:08;;;;;;;45.52;23.62;;;;;;;2.30;85.95;101794.40;1730621;82;21223;-83
2021/01/10 01:52:36;;;;;;;42.00;23.47;;;;;;;2.28;85.90;101799.87;1730643;82;21176;-83
2021/01/10 01:55:05;;;;;;;38.65;21.87;;;;;;;2.28;85.94;101793.38;1730721;82;21175;-82
2021/01/10 01:57:33;;;;;;;40.92;21.97;;;;;;;2.28;86.00;101799.47;1730767;82;21207;-83
2021/01/10 02:00:00;;;;;;;43.20;23.98;;;;;;;2.28;86.00;101803.37;1730748;82;21774;-83
2021/01/10 02:02:27;;;;;;;46.35;24.52;;;;;;;2.29;85.99;101799.06;1705934;82;21637;-83
2021/01/10 02:05:07;;;;;;;40.52;22.22;;;;;;;2.29;86.07;101802.59;1730720;82;21188;-83
2021/01/10 02:07:57;;;;;;;43.83;23.70;;;;;;;2.30;86.02;101804.79;1730812;82;21215;-83
2021/01/10 02:10:30;;;;;;;48.13;24.18;;;;;;;2.28;85.91;101811.16;1730860;82;21176;-83
2021/01/10 02:12:59;;;;;;;39.53;22.52;;;;;;;2.26;85.95;101811.85;1730997;81;21956;-84
2021/01/10 02:15:31;;;;;;;41.48;23.22;;;;;;;2.24;85.97;101815.63;1730815;82;21176;-84
2021/01/10 02:17:58;;;;;;;39.45;22.20;;;;;;;2.25;86.06;101816.52;1730661;82;21164;-84
2021/01/10 02:20:37;;;;;;;40.40;22.90;;;;;;;2.25;86.05;101824.31;1730925;82;21144;-84
2021/01/10 02:23:10;;;;;;;38.30;22.55;;;;;;;2.25;86.08;101820.05;1730406;82;21559;-83
2021/01/10 02:25:38;;;;;;;42.23;22.70;;;;;;;2.24;86.10;101822.12;1728331;81;21800;-83
2021/01/10 02:28:05;;;;;;;36.42;21.77;;;;;;;2.26;86.13;101820.94;1728072;83;21148;-83
2021/01/10 02:30:33;;;;;;;37.40;21.00;;;;;;;2.27;86.08;101826.26;1728277;83;21543;-82
2021/01/10 02:33:04;;;;;;;38.78;22.80;;;;;;;2.24;86.02;101823.82;1728131;83;21167;-83
2021/01/10 02:35:31;;;;;;;38.17;20.97;;;;;;;2.22;86.04;101826.70;1680582;83;21128;-82
2021/01/10 02:38:31;;;;;;;38.55;22.50;;;;;;;2.24;86.14;101829.02;1727595;83;21956;-82
2021/01/10 02:41:31;;;;;;;36.68;20.15;;;;;;;2.24;86.18;101833.81;1727924;83;21182;-82
2021/01/10 02:44:24;;;;;;;32.85;19.65;;;;;;;2.27;86.23;101826.63;1727669;83;21183;-82
2021/01/10 02:46:53;;;;;;;30.88;17.82;;;;;;;2.28;86.21;101820.66;1727986;83;21179;-83
2021/01/10 02:49:20;;;;;;;37.33;20.65;;;;;;;2.29;86.18;101824.68;1728150;83;21195;-83
2021/01/10 02:51:48;;;;;;;34.35;19.65;;;;;;;2.26;86.15;101827.03;1728118;82;21894;-83
2021/01/10 02:54:15;;;;;;;36.05;19.02;;;;;;;2.28;86.21;101828.45;1727900;83;21143;-83
2021/01/10 02:57:06;;;;;;;32.85;19.80;;;;;;;2.29;86.19;101830.24;1727917;83;21524;-83
2021/01/10 02:59:37;;;;;;;30.08;18.15;;;;;;;2.30;86.20;101828.17;1727929;83;21222;-84
2021/01/10 03:02:05;;;;;;;33.55;19.50;;;;;;;2.28;86.04;101833.65;1727382;83;21591;-82
2021/01/10 03:04:32;;;;;;;31.52;19.20;;;;;;;2.24;86.06;101831.21;1727449;82;21902;-82
2021/01/10 03:06:59;;;;;;;32.95;18.67;;;;;;;2.23;86.13;101831.98;1727373;82;21187;-82
2021/01/10 03:09:26;;;;;;;31.17;17.85;;;;;;;2.22;86.16;101828.89;1727992;83;21169;-82
2021/01/10 03:11:53;;;;;;;29.40;17.17;;;;;;;2.24;86.19;101831.61;1727992;83;21586;-83
2021/01/10 03:14:22;;;;;;;27.98;16.77;;;;;;;2.24;86.19;101829.91;1728136;83;21199;-83
2021/01/10 03:16:49;;;;;;;29.00;17.00;;;;;;;2.22;86.13;101826.70;1728053;83;21952;-83
2021/01/10 03:19:16;;;;;;;26.30;17.02;;;;;;;2.20;86.15;101835.67;1727911;83;21594;-84
2021/01/10 03:21:43;;;;;;;27.20;16.90;;;;;;;2.20;86.17;101838.67;1727984;82;21160;-84
2021/01/10 03:24:12;;;;;;;27.50;17.30;;;;;;;2.17;86.18;101836.72;1727851;82;21310;-83
2021/01/10 03:26:39;;;;;;;32.73;17.92;;;;;;;2.16;86.20;101831.41;1728137;83;21136;-83
2021/01/10 03:29:08;;;;;;;29.72;16.97;;;;;;;2.14;86.16;101828.31;1728009;82;21212;-83
2021/01/10 03:31:37;;;;;;;29.23;16.73;;;;;;;2.14;86.24;101823.13;1727957;83;21187;-83
2021/01/10 03:34:04;;;;;;;29.48;17.37;;;;;;;2.15;86.28;101825.31;1727981;83;21195;-84
2021/01/10 03:36:31;;;;;;;26.57;17.07;;;;;;;2.14;86.33;101823.13;1727985;82;21180;-84
2021/01/10 03:38:58;;;;;;;27.32;16.93;;;;;;;2.14;86.33;101829.61;1728057;83;21163;-84
2021/01/10 03:41:25;;;;;;;29.70;16.93;;;;;;;2.17;86.40;101831.53;1727889;83;22851;-83
2021/01/10 03:43:53;;;;;;;29.98;16.67;;;;;;;2.17;86.35;101825.44;1727873;82;21176;-83
2021/01/10 03:46:20;;;;;;;26.87;16.23;;;;;;;2.18;86.43;101825.56;1727795;83;21146;-82
2021/01/10 03:48:47;;;;;;;31.33;16.65;;;;;;;2.21;86.40;101832.67;1727828;83;21648;-84
2021/01/10 03:51:14;;;;;;;28.62;17.23;;;;;;;2.23;86.39;101829.79;1727704;83;21191;-84
2021/01/10 03:53:41;;;;;;;26.52;16.15;;;;;;;2.21;86.33;101827.47;1727991;83;22105;-83
2021/01/10 03:56:08;;;;;;;27.05;15.53;;;;;;;2.20;86.33;101826.98;1727749;81;21191;-84
2021/01/10 03:58:36;;;;;;;25.85;15.60;;;;;;;2.21;86.37;101828.77;1727996;83;21116;-84
2021/01/10 04:01:03;;;;;;;25.57;15.28;;;;;;;2.22;86.39;101827.59;1727757;81;21192;-84
2021/01/10 04:03:30;;;;;;;25.55;14.70;;;;;;;2.20;86.32;101822.68;1727688;83;21177;-83
2021/01/10 04:05:57;;;;;;;27.10;15.10;;;;;;;2.22;86.39;101817.61;1727685;83;21899;-82
2021/01/10 04:08:24;;;;;;;23.90;14.78;;;;;;;2.23;86.40;101824.19;1727480;83;21207;-82
2021/01/10 04:10:51;;;;;;;21.87;13.88;;;;;;;2.23;86.36;101820.30;1727707;83;21132;-83
2021/01/10 04:13:18;;;;;;;22.10;13.60;;;;;;;2.24;86.36;101819.92;1728007;83;21606;-82
2021/01/10 04:15:46;;;;;;;22.05;13.72;;;;;;;2.22;86.32;101825.00;1727873;83;21260;-82
2021/01/10 04:18:13;;;;;;;22.45;14.78;;;;;;;2.23;86.39;101823.30;1727781;83;21888;-82
2021/01/10 04:20:40;;;;;;;21.77;13.40;;;;;;;2.23;86.38;101820.70;1727927;83;21531;-82
2021/01/10 04:23:07;;;;;;;23.18;12.95;;;;;;;2.23;86.37;101825.89;1727874;81;21179;-83
2021/01/10 04:25:34;;;;;;;24.35;14.93;;;;;;;2.26;86.45;101830.03;1727707;82;21227;-82
2021/01/10 04:28:02;;;;;;;24.20;13.35;;;;;;;2.27;86.40;101826.63;1727721;83;21175;-82
2021/01/10 04:30:33;;;;;;;20.23;13.58;;;;;;;2.27;86.38;101829.23;1727936;82;22885;-84
2021/01/10 04:33:00;;;;;;;23.73;14.75;;;;;;;2.30;86.48;101825.58;1727692;83;21646;-83
2021/01/10 04:35:27;;;;;;;20.30;13.85;;;;;;;2.31;86.44;101828.70;1728085;82;21563;-84
2021/01/10 04:37:54;;;;;;;19.25;12.98;;;;;;;2.31;86.40;101828.30;1728055;83;21131;-83
2021/01/10 04:40:22;;;;;;;20.30;12.85;;;;;;;2.31;86.38;101819.60;1728166;83;21657;-84
2021/01/10 04:42:49;;;;;;;22.27;14.68;;;;;;;2.31;86.32;101820.91;1728178;83;22060;-83
2021/01/10 04:45:16;;;;;;;17.50;12.70;;;;;;;2.32;86.42;101821.39;1703599;83;21566;-83
2021/01/10 04:47:43;;;;;;;22.77;13.30;;;;;;;2.34;86.42;101822.41;1728050;83;21579;-82
2021/01/10 04:50:10;;;;;;;19.10;12.88;;;;;;;2.36;86.42;101822.53;1703581;83;21669;-83
2021/01/10 04:52:38;;;;;;;24.45;14.53;;;;;;;2.37;86.38;101822.66;1728141;83;21167;-84
2021/01/10 04:55:06;;;;;;;23.40;13.70;;;;;;;2.36;86.33;101820.83;1728303;82;21958;-84
2021/01/10 04:57:33;;;;;;;20.48;13.05;;;;;;;2.36;86.34;101820.83;1728070;82;22173;-83
2021/01/10 05:00:03;;;;;;;19.15;12.53;;;;;;;2.38;86.37;101820.55;1728046;82;21159;-84
2021/01/10 05:02:32;;;;;;;21.37;13.08;;;;;;;2.37;86.30;101814.86;1728094;82;21187;-83
2021/01/10 05:04:59;;;;;;;21.48;13.38;;;;;;;2.37;86.36;101820.05;1727943;83;21164;-84
2021/01/10 05:07:27;;;;;;;18.80;13.55;;;;;;;2.37;86.26;101824.36;1727976;83;22088;-84
2021/01/10 05:09:54;;;;;;;20.72;12.82;;;;;;;2.36;86.23;101821.23;1727944;83;21673;-83
2021/01/10 05:12:21;;;;;;;20.05;14.00;;;;;;;2.33;86.22;101816.73;1727949;83;21183;-84
2021/01/10 05:14:48;;;;;;;20.88;13.25;;;;;;;2.30;86.18;101819.97;1728234;82;21268;-84
2021/01/10 05:17:20;;;;;;;22.60;14.13;;;;;;;2.28;86.22;101813.77;1728035;83;21203;-84
2021/01/10 05:19:50;;;;;;;25.08;13.90;;;;;;;2.26;86.24;101807.55;1728149;83;22782;-84
2021/01/10 05:22:18;;;;;;;21.57;13.75;;;;;;;2.26;86.24;101811.45;1727903;83;21192;-84
2021/01/10 05:24:46;;;;;;;20.82;14.00;;;;;;;2.26;86.28;101813.15;1727017;82;21179;-84
2021/01/10 05:27:13;;;;;;;22.60;13.98;;;;;;;2.22;86.18;101808.11;1717654;83;21269;-83
2021/01/10 05:29:44;;;;;;;23.87;14.33;;;;;;;2.23;86.27;101811.20;1722299;82;21187;-84
2021/01/10 05:32:11;;;;;;;23.87;14.73;;;;;;;2.21;86.21;101810.19;1722530;83;22813;-84
2021/01/10 05:34:38;;;;;;;23.65;12.88;;;;;;;2.19;86.25;101814.36;1722194;83;21613;-83
2021/01/10 05:37:15;;;;;;;21.57;13.78;;;;;;;2.18;86.30;101820.73;1722478;83;21164;-83
2021/01/10 05:39:45;;;;;;;18.92;12.05;;;;;;;2.18;86.37;101817.77;1722360;82;21211;-83
2021/01/10 05:42:14;;;;;;;21.33;13.03;;;;;;;2.19;86.37;101816.95;1722377;83;21176;-83
2021/01/10 05:44:46;;;;;;;19.37;12.93;;;;;;;2.19;86.40;101819.56;1722283;83;21902;-83
2021/01/10 05:47:14;;;;;;;21.55;12.53;;;;;;;2.18;86.33;101815.17;1722273;83;21155;-83
2021/01/10 05:49:53;;;;;;;20.10;13.10;;;;;;;2.18;86.37;101818.14;1722445;83;21200;-84
2021/01/10 05:52:22;;;;;;;20.35;13.78;;;;;;;2.17;86.37;101817.24;1722356;83;21392;-86
2021/01/10 05:54:54;;;;;;;20.80;13.00;;;;;;;2.16;86.29;101821.95;1722575;83;21164;-86
2021/01/10 05:57:28;;;;;;;20.82;13.03;;;;;;;2.13;86.26;101820.41;1722663;83;21967;-84
2021/01/10 05:59:57;;;;;;;19.35;13.22;;;;;;;2.12;86.34;101828.97;1722612;83;21163;-86
2021/01/10 06:02:34;;;;;;;24.72;14.47;;;;;;;2.11;86.38;101830.66;1722384;83;21155;-85
2021/01/10 06:05:19;;;;;;;21.37;14.40;;;;;;;2.10;86.41;101836.67;1721880;83;21136;-85
2021/01/10 06:07:51;;;;;;;21.68;14.25;;;;;;;2.11;86.48;101841.05;1722486;83;21120;-84
2021/01/10 06:10:28;;;;;;;21.25;15.20;;;;;;;2.11;86.45;101844.05;1722504;83;21108;-85
2021/01/10 06:13:06;;;;;;;22.52;15.18;;;;;;;2.13;86.53;101848.97;1722612;83;21630;-85
2021/01/10 06:15:34;;;;;;;24.18;14.73;;;;;;;2.16;86.55;101849.22;1722402;83;21160;-85
2021/01/10 06:18:12;;;;;;;24.67;17.35;;;;;;;2.17;86.56;101847.11;1722670;83;21145;-84
2021/01/10 06:20:41;;;;;;;41.98;26.07;;;;;;;2.19;86.59;101840.74;1722671;83;21195;-83
2021/01/10 06:23:08;;;;;;;37.65;23.90;;;;;;;2.21;86.51;101841.77;1718001;83;21888;-82
2021/01/10 06:25:38;;;;;;;26.82;18.65;;;;;;;2.21;86.51;101843.95;1722231;83;21235;-82
2021/01/10 06:28:13;;;;;;;28.57;17.15;;;;;;;2.20;86.43;101849.06;1722313;83;21184;-84
2021/01/10 06:30:54;;;;;;;23.10;14.93;;;;;;;2.21;86.48;101844.36;1722263;83;21200;-84
2021/01/10 06:33:30;;;;;;;24.10;14.28;;;;;;;2.20;86.48;101840.87;1721529;83;21214;-84
2021/01/10 06:36:05;;;;;;;21.07;13.40;;;;;;;2.19;86.47;101849.43;1722396;83;21152;-83
2021/01/10 06:38:37;;;;;;;22.20;14.18;;;;;;;2.19;86.48;101846.83;1722269;83;21173;-84
2021/01/10 06:41:47;;;;;;;25.05;16.05;;;;;;;2.20;86.53;101848.66;1722426;83;21163;-82
2021/01/10 06:44:14;;;;;;;23.57;15.23;;;;;;;2.22;86.54;101856.17;1719901;83;21136;-84
2021/01/10 06:46:41;;;;;;;21.60;14.98;;;;;;;2.24;86.56;101858.89;1722299;83;21143;-84
2021/01/10 06:49:08;;;;;;;23.15;15.23;;;;;;;2.27;86.55;101848.71;1671054;83;21962;-84
2021/01/10 06:51:36;;;;;;;22.77;14.05;;;;;;;2.26;86.53;101852.12;1722199;83;21188;-84
2021/01/10 06:54:04;;;;;;;21.52;14.07;;;;;;;2.26;86.45;101856.02;1722323;83;21231;-84
2021/01/10 06:56:32;;;;;;;22.80;14.55;;;;;;;2.26;86.44;101853.41;1722340;83;21145;-84
2021/01/10 06:59:23;;;;;;;22.35;14.38;;;;;;;2.26;86.41;101849.52;1722318;83;21125;-84
2021/01/10 07:01:56;;;;;;;19.23;12.68;;;;;;;2.26;86.41;101846.92;1722356;83;22072;-84
2021/01/10 07:04:54;;;;;;;19.55;12.90;;;;;;;2.27;86.36;101850.94;1722305;83;21145;-85
2021/01/10 07:07:35;;;;;;;25.17;14.60;;;;;;;2.26;86.37;101854.31;1687408;84;21112;-86
2021/01/10 07:10:11;;;;;;;24.27;16.70;;;;;;;2.32;86.43;101859.06;1811574;78;21876;-85
2021/01/10 07:12:54;;;;;;;25.88;17.02;;;;;;;2.30;86.43;101862.84;1797281;79;21170;-84
2021/01/10 07:15:28;;;;;;;33.67;18.85;;;;;;;2.31;86.34;101863.77;1737519;79;22978;-84
2021/01/10 07:18:04;;;;;;;34.15;19.17;;;;;;;2.27;86.19;101861.33;1797338;79;21167;-84
2021/01/10 07:20:40;;;;;;;27.45;17.17;;;;;;;2.24;86.19;101865.39;1782707;79;21137;-83
2021/01/10 07:23:30;;;;;;;29.87;17.57;;;;;;;2.23;86.23;101867.45;1764888;80;21197;-85
2021/01/10 07:25:58;;;;;;;29.60;16.20;;;;;;;2.25;86.33;101872.00;1765491;81;21173;-84
2021/01/10 07:28:37;;;;;;;26.23;15.63;;;;;;;2.25;86.36;101864.21;1770946;79;21813;-93
2021/01/10 07:31:13;;;;;;;22.45;15.83;;;;;;;2.27;86.40;101869.49;1796965;79;21213;-83
2021/01/10 07:33:40;;;;;;;25.97;18.00;;;;;;;2.29;86.42;101874.41;1796881;79;21215;-84
2021/01/10 07:36:07;;;;;;;27.70;18.55;;;;;;;2.33;86.48;101872.59;1797239;79;21183;-85
2021/01/10 07:38:35;;;;;;;26.27;17.25;;;;;;;2.37;86.42;101875.02;1797068;79;21128;-85
2021/01/10 07:41:27;;;;;;;24.92;17.52;;;;;;;2.37;86.38;101874.63;1797093;79;21903;-84
2021/01/10 07:43:56;;;;;;;27.67;17.23;;;;;;;2.39;86.36;101877.34;1797020;79;21602;-84
2021/01/10 07:46:54;;;;;;;29.05;18.92;;;;;;;2.42;86.27;101882.38;1796866;79;21156;-85
2021/01/10 07:49:24;;;;;;;29.55;18.02;;;;;;;2.41;86.14;101887.45;1796884;79;21278;-84
2021/01/10 07:51:51;;;;;;;27.70;17.00;;;;;;;2.40;86.16;101886.93;1797024;79;21203;-84
2021/01/10 07:54:18;;;;;;;28.92;18.75;;;;;;;2.41;86.16;101890.95;1797039;79;22725;-82
2021/01/10 07:56:45;;;;;;;31.27;19.07;;;;;;;2.43;86.19;101894.56;1797027;79;21140;-84
2021/01/10 07:59:17;;;;;;;31.02;19.02;;;;;;;2.45;86.21;101894.28;1796903;79;21787;-85
2021/01/10 08:01:50;;;;;;;30.17;19.15;;;;;;;2.47;86.13;101902.20;1797055;79;21147;-85
2021/01/10 08:04:33;;;;;;;31.87;19.82;;;;;;;2.51;86.18;101903.84;1797217;79;21152;-84
2021/01/10 08:07:02;;;;;;;31.60;20.35;;;;;;;2.50;86.09;101894.25;1797458;79;21961;-85
2021/01/10 08:09:33;;;;;;;28.83;19.17;;;;;;;2.52;86.11;101896.57;1790493;78;21132;-86
2021/01/10 08:12:00;;;;;;;26.40;18.27;;;;;;;2.58;86.22;101900.02;1786131;80;21132;-81
2021/01/10 08:14:28;;;;;;;27.00;17.55;;;;;;;2.62;86.17;101898.16;1786620;80;21195;-80
2021/01/10 08:16:55;;;;;;;25.50;17.07;;;;;;;2.68;86.12;101897.72;1749326;81;21188;-85
2021/01/10 08:19:22;;;;;;;28.67;17.55;;;;;;;2.71;86.08;101904.05;1782053;80;22863;-82
2021/01/10 08:21:51;;;;;;;29.57;17.62;;;;;;;2.77;86.09;101901.41;1779128;79;21076;-84
2021/01/10 08:24:19;;;;;;;28.10;18.12;;;;;;;2.82;86.05;101900.07;1782636;80;21169;-84
2021/01/10 08:26:46;;;;;;;26.25;17.50;;;;;;;2.88;86.06;101903.12;1781814;80;21179;-84
2021/01/10 08:29:14;;;;;;;27.50;16.70;;;;;;;2.91;85.93;101909.86;1787654;80;21477;-84
2021/01/10 08:31:41;;;;;;;24.40;16.20;;;;;;;2.96;85.91;101912.79;1787660;80;21692;-84
2021/01/10 08:34:16;;;;;;;24.90;16.25;;;;;;;3.00;85.90;101913.52;1787671;80;21152;-84
2021/01/10 08:36:45;;;;;;;29.37;19.60;;;;;;;3.02;85.72;101914.16;1787696;80;21195;-84
2021/01/10 08:39:14;;;;;;;24.72;17.90;;;;;;;3.04;85.67;101912.95;1779865;80;21197;-84
2021/01/10 08:41:44;;;;;;;24.35;17.77;;;;;;;3.10;85.69;101926.44;1756480;81;21641;-84
2021/01/10 08:44:20;;;;;;;27.93;19.50;;;;;;;3.13;85.64;101929.23;1754499;81;21904;-86
2021/01/10 08:46:51;;;;;;;33.20;21.85;;;;;;;3.19;85.67;101933.62;1756482;81;21132;-85
2021/01/10 08:52:05;;;;;;;53.08;34.45;;;;;;;3.32;85.66;101922.38;1789005;79;22890;-84
2021/01/10 08:57:13;;;;;;;33.53;22.52;;;;;;;3.45;85.58;101925.48;1847270;76;23301;-83
2021/01/10 08:59:40;;;;;;;34.23;23.07;;;;;;;3.45;85.45;101926.79;1777313;79;21190;-87
2021/01/10 09:02:09;;;;;;;31.60;19.85;;;;;;;3.49;85.42;101932.72;1778897;79;21222;-88
2021/01/10 09:04:46;;;;;;;36.83;23.00;;;;;;;3.52;85.29;101927.74;1798909;77;21178;-87
2021/01/10 09:07:21;;;;;;;26.87;17.87;;;;;;;3.57;85.28;101933.30;1797196;78;21202;-85
2021/01/10 09:10:04;;;;;;;30.27;19.45;;;;;;;3.60;85.20;101931.80;1809192;78;21167;-89
2021/01/10 09:12:41;;;;;;;26.27;17.48;;;;;;;3.67;85.19;101933.16;1796433;78;21601;-89
2021/01/10 09:15:17;;;;;;;28.05;18.55;;;;;;;3.72;85.09;101933.09;1815861;77;21823;-87
2021/01/10 09:17:59;;;;;;;25.37;16.27;;;;;;;3.74;84.91;101934.52;1790113;78;21154;-86
2021/01/10 09:20:29;;;;;;;24.37;15.98;;;;;;;3.78;84.92;101931.33;1801378;78;21570;-90
2021/01/10 09:22:59;;;;;;;24.45;15.55;;;;;;;3.82;84.86;101930.34;1821135;78;21124;-90
2021/01/10 09:25:27;;;;;;;24.30;16.50;;;;;;;3.85;84.70;101932.28;1820931;78;21123;-90
2021/01/10 09:28:17;;;;;;;24.55;16.75;;;;;;;3.87;84.68;101931.58;1771968;78;22180;-91
2021/01/10 09:30:53;;;;;;;26.02;17.80;;;;;;;3.94;84.73;101931.63;1787261;80;21064;-88
2021/01/10 09:33:31;;;;;;;24.98;16.32;;;;;;;3.97;84.56;101933.12;1787323;80;21522;-87
2021/01/10 09:36:00;;;;;;;26.57;18.17;;;;;;;4.01;84.47;101931.64;1787266;80;21542;-87
2021/01/10 09:38:29;;;;;;;29.90;20.12;;;;;;;4.04;84.45;101932.77;1787669;80;21127;-85
2021/01/10 09:43:53;;;;;;;26.42;17.45;;;;;;;4.15;84.26;101930.92;1811915;78;22797;-87
2021/01/10 09:46:39;;;;;;;26.20;18.10;;;;;;;4.14;84.25;101930.41;1797462;79;21578;-89
2021/01/10 09:49:20;;;;;;;24.98;17.60;;;;;;;4.18;84.14;101936.33;1797280;79;21881;-88
2021/01/10 09:51:55;;;;;;;24.18;16.55;;;;;;;4.23;84.22;101939.27;1792907;79;21550;-89
2021/01/10 09:54:26;;;;;;;24.57;17.35;;;;;;;4.27;84.19;101944.78;1796667;79;21179;-81
2021/01/10 09:57:10;;;;;;;24.60;16.93;;;;;;;4.27;84.04;101942.59;1796286;79;21167;-95
2021/01/10 09:59:47;;;;;;;35.78;17.42;;;;;;;4.30;83.98;101936.30;1796518;79;21139;-82
2021/01/10 10:02:36;;;;;;;23.27;17.30;;;;;;;4.34;83.86;101939.62;1796109;79;21189;-86
2021/01/10 10:05:19;;;;;;;28.30;20.95;;;;;;;4.34;83.75;101934.41;1763020;79;21128;-87
2021/01/10 10:07:48;;;;;;;33.38;24.63;;;;;;;4.36;83.86;101927.59;1796387;79;21123;-88
2021/01/10 10:10:23;;;;;;;29.98;21.12;;;;;;;4.43;83.85;101935.04;1796373;79;21204;-87
2021/01/10 10:13:12;;;;;;;34.90;26.23;;;;;;;4.50;83.94;101928.94;1796466;79;21152;-87
2021/01/10 10:18:31;;;;;;;37.70;26.82;;;;;;;4.59;83.44;101923.05;1889922;76;22651;-86
2021/01/10 10:21:00;;;;;;;42.08;28.12;;;;;;;4.51;83.30;101924.23;1857960;77;21107;-87
2021/01/10 10:23:27;;;;;;;38.05;26.48;;;;;;;4.50;83.28;101918.09;1857976;77;21991;-86
2021/01/10 10:25:54;;;;;;;43.40;28.45;;;;;;;4.45;83.22;101919.09;1857903;77;21146;-88
2021/01/10 10:28:22;;;;;;;35.05;26.90;;;;;;;4.45;83.25;101922.12;1857791;77;21534;-87
2021/01/10 10:30:49;;;;;;;34.03;25.00;;;;;;;4.46;83.24;101913.06;1858006;77;21130;-88
2021/01/10 10:33:16;;;;;;;27.60;19.12;;;;;;;4.51;83.50;101908.19;1858356;77;21076;-87
2021/01/10 10:35:44;;;;;;;28.15;18.87;;;;;;;4.55;83.46;101904.98;1858091;77;21877;-86
2021/01/10 10:38:11;;;;;;;27.15;19.75;;;;;;;4.60;83.49;101912.72;1857877;77;21131;-87
2021/01/10 10:40:38;;;;;;;23.98;18.10;;;;;;;4.61;83.35;101909.30;1858728;77;21079;-86
2021/01/10 10:43:06;;;;;;;30.00;19.50;;;;;;;4.65;83.33;101903.89;1857827;77;21526;-86
2021/01/10 10:45:33;;;;;;;27.55;19.05;;;;;;;4.68;83.32;101903.70;1858177;77;21123;-86
2021/01/10 10:48:00;;;;;;;26.45;18.98;;;;;;;4.73;83.28;101900.48;1858084;77;22876;-86
2021/01/10 10:50:27;;;;;;;27.95;18.57;;;;;;;4.77;83.20;101901.23;1858058;77;21126;-87
2021/01/10 10:52:55;;;;;;;27.50;18.85;;;;;;;4.76;83.15;101904.20;1827123;77;21114;-87
2021/01/10 10:55:25;;;;;;;29.50;19.55;;;;;;;4.75;82.92;101902.80;1858192;77;21104;-86
2021/01/10 10:57:50;;;;;;;29.02;20.17;;;;;;;4.68;82.77;101901.09;1858380;77;21047;-87
2021/01/10 11:00:18;;;;;;;28.67;19.80;;;;;;;4.66;82.81;101900.50;1857977;77;22093;-87
2021/01/10 11:02:45;;;;;;;32.03;21.42;;;;;;;4.69;83.09;101894.16;1858098;77;21158;-87
2021/01/10 11:05:13;;;;;;;32.90;21.25;;;;;;;4.76;83.08;101895.08;1857842;77;21151;-88
2021/01/10 11:07:40;;;;;;;32.45;21.35;;;;;;;4.79;83.00;101890.08;1857902;77;21852;-87
2021/01/10 11:10:08;;;;;;;32.67;22.07;;;;;;;4.77;82.76;101889.48;1857861;77;21570;-87
2021/01/10 11:12:36;;;;;;;34.33;21.73;;;;;;;4.72;82.64;101886.55;1858072;77;21884;-87
2021/01/10 11:15:05;;;;;;;29.82;21.85;;;;;;;4.71;82.66;101889.98;1857743;77;21112;-88
2021/01/10 11:17:33;;;;;;;31.97;22.32;;;;;;;4.71;82.69;101887.75;1858036;77;21091;-87
2021/01/10 11:20:04;;;;;;;30.82;23.15;;;;;;;4.65;82.54;101888.24;1858418;77;21164;-87
2021/01/10 11:22:37;;;;;;;35.48;23.10;;;;;;;4.59;82.44;101894.36;1858566;77;21096;-87
2021/01/10 11:25:06;;;;;;;35.75;22.58;;;;;;;4.58;82.66;101895.14;1833383;77;23050;-87
2021/01/10 11:27:33;;;;;;;33.42;22.10;;;;;;;4.62;82.85;101892.86;1858282;77;21100;-87
2021/01/10 11:30:00;;;;;;;32.58;22.90;;;;;;;4.61;82.61;101892.34;1857729;77;21119;-87
2021/01/10 11:32:27;;;;;;;37.10;23.20;;;;;;;4.56;82.62;101888.55;1857829;77;21131;-87
2021/01/10 11:34:54;;;;;;;36.28;25.00;;;;;;;4.53;82.65;101884.83;1857829;77;21165;-87
2021/01/10 11:37:23;;;;;;;38.08;25.43;;;;;;;4.45;82.54;101883.91;1857750;77;22877;-87
2021/01/10 11:39:50;;;;;;;40.67;26.75;;;;;;;4.33;82.45;101880.45;1857710;77;21192;-87
2021/01/10 11:42:17;;;;;;;33.83;21.75;;;;;;;4.20;82.25;101886.92;1857922;77;21123;-87
2021/01/10 11:44:44;;;;;;;29.23;18.62;;;;;;;4.11;82.37;101878.47;1857699;77;21134;-86